Terminal Aerodrome Forecast
Issued by NWS Riverton, WY

Home | Current Version | Previous Version | Text Only | Print | Product List | Glossary On
Versions: 1 2 3 4 5 6 7 8 9 10 11 12 13 14 15 16
000
FTUS45 KRIW 031720
TAFRIW
TAF
KRIW 031720Z 0318/0418 19007KT P6SM BKN250
     FM032000 22012G24KT P6SM SCT250
     FM040100 21009KT P6SM FEW110 BKN250
     FM040600 VRB06KT P6SM FEW100 SCT250=

USA.gov is the U.S. government's official web portal to all federal, state and local government web resources and services.